Time;durP1;ratioP1;P1;durP2;ratioP2;P2;SDS_P1;SDS_P2;PMS_P1;PMS_P2;Temp;Humidity;BMP_temperature;BMP_pressure;BME280_temperature;BME280_humidity;BME280_pressure;Samples;Min_cycle;Max_cycle;Signal;HPM_P1;HPM_P2
2021/01/01 00:02:03;;;;;;;32.65;23.27;;;;;;;;;;4991654;28;20426;-77
2021/01/01 00:04:29;;;;;;;26.58;21.23;;;;;;;;;;4991270;28;20544;-77
2021/01/01 00:06:56;;;;;;;24.50;20.80;;;;;;;;;;4990033;28;20226;-77
2021/01/01 00:09:22;;;;;;;29.38;20.90;;;;;;;;;;4991573;28;20422;-77
2021/01/01 00:11:49;;;;;;;24.50;18.33;;;;;;;;;;4987036;28;20271;-77
2021/01/01 00:14:15;;;;;;;26.48;20.30;;;;;;;;;;4989918;28;20203;-77
2021/01/01 00:16:41;;;;;;;28.33;20.90;;;;;;;;;;4992016;28;20218;-77
2021/01/01 00:19:07;;;;;;;20.88;17.15;;;;;;;;;;4993849;28;20230;-77
2021/01/01 00:21:34;;;;;;;21.10;18.48;;;;;;;;;;4996928;28;20187;-77
2021/01/01 00:24:00;;;;;;;23.90;18.00;;;;;;;;;;4997173;28;20238;-77
2021/01/01 00:26:26;;;;;;;23.15;17.45;;;;;;;;;;4999083;28;20545;-77
2021/01/01 00:28:52;;;;;;;23.48;18.73;;;;;;;;;;4993447;28;20882;-77
2021/01/01 00:31:22;;;;;;;23.98;18.30;;;;;;;;;;4984336;28;20262;-76
2021/01/01 00:33:48;;;;;;;27.38;18.17;;;;;;;;;;4987272;28;20346;-77
2021/01/01 00:36:15;;;;;;;25.73;17.02;;;;;;;;;;4977168;28;20184;-77
2021/01/01 00:38:46;;;;;;;24.80;19.95;;;;;;;;;;4993970;28;20211;-77
2021/01/01 00:41:12;;;;;;;24.85;18.88;;;;;;;;;;4994552;28;20546;-77
2021/01/01 00:43:38;;;;;;;25.88;18.73;;;;;;;;;;4995547;28;20207;-77
2021/01/01 00:46:06;;;;;;;21.80;17.07;;;;;;;;;;4994544;28;20509;-77
2021/01/01 00:48:32;;;;;;;25.67;20.15;;;;;;;;;;4992754;28;20479;-77
2021/01/01 00:50:58;;;;;;;27.07;20.33;;;;;;;;;;4994918;28;20187;-77
2021/01/01 00:53:23;;;;;;;24.88;20.15;;;;;;;;;;4993149;28;20467;-77
2021/01/01 00:55:49;;;;;;;30.90;20.40;;;;;;;;;;4994174;28;20190;-77
2021/01/01 00:58:15;;;;;;;27.13;19.60;;;;;;;;;;4991666;28;20564;-77
2021/01/01 01:00:41;;;;;;;29.50;20.53;;;;;;;;;;4995196;28;20785;-77
2021/01/01 01:03:07;;;;;;;28.50;21.77;;;;;;;;;;4994125;28;20934;-76
2021/01/01 01:05:33;;;;;;;25.43;19.97;;;;;;;;;;4993834;28;20991;-76
2021/01/01 01:07:59;;;;;;;33.75;21.30;;;;;;;;;;4992760;28;20525;-77
2021/01/01 01:10:25;;;;;;;37.22;24.27;;;;;;;;;;4994961;28;20179;-76
2021/01/01 01:12:51;;;;;;;44.73;27.60;;;;;;;;;;4992729;28;20643;-77
2021/01/01 01:15:17;;;;;;;38.10;27.93;;;;;;;;;;4996488;28;20952;-76
2021/01/01 01:17:43;;;;;;;37.33;28.50;;;;;;;;;;5001606;28;20466;-76
2021/01/01 01:20:10;;;;;;;39.80;28.60;;;;;;;;;;5000994;28;20423;-77
2021/01/01 01:22:36;;;;;;;44.05;27.30;;;;;;;;;;4994054;28;20442;-77
2021/01/01 01:25:02;;;;;;;41.80;29.00;;;;;;;;;;4993425;28;20431;-77
2021/01/01 01:27:28;;;;;;;43.22;28.20;;;;;;;;;;4990136;28;20449;-76
2021/01/01 01:29:54;;;;;;;38.28;28.00;;;;;;;;;;4993200;28;20209;-77
2021/01/01 01:32:20;;;;;;;45.40;29.80;;;;;;;;;;4991448;28;20673;-77
2021/01/01 01:34:45;;;;;;;40.73;30.83;;;;;;;;;;4993848;28;20238;-76
2021/01/01 01:37:11;;;;;;;44.37;29.60;;;;;;;;;;4992232;28;20922;-77
2021/01/01 01:39:37;;;;;;;45.20;30.43;;;;;;;;;;4984711;28;20442;-76
2021/01/01 01:42:03;;;;;;;47.90;29.70;;;;;;;;;;5005880;28;20444;-76
2021/01/01 01:44:29;;;;;;;47.70;31.25;;;;;;;;;;4991996;28;20482;-76
2021/01/01 01:46:55;;;;;;;42.83;27.87;;;;;;;;;;4993747;28;20607;-77
2021/01/01 01:49:21;;;;;;;42.23;28.33;;;;;;;;;;4994067;28;20868;-77
2021/01/01 01:51:48;;;;;;;50.50;34.83;;;;;;;;;;4993366;28;20855;-77
2021/01/01 01:54:19;;;;;;;51.63;34.33;;;;;;;;;;4991490;28;20549;-76
2021/01/01 01:56:45;;;;;;;48.70;31.92;;;;;;;;;;4992966;28;20287;-77
2021/01/01 01:59:14;;;;;;;47.53;31.38;;;;;;;;;;4991713;28;20222;-77
2021/01/01 02:01:40;;;;;;;51.55;31.35;;;;;;;;;;4993231;28;20701;-76
2021/01/01 02:04:06;;;;;;;55.90;34.28;;;;;;;;;;4994301;28;20187;-77
2021/01/01 02:06:32;;;;;;;64.38;34.85;;;;;;;;;;4994553;28;20194;-77
2021/01/01 02:08:58;;;;;;;59.35;34.83;;;;;;;;;;4992575;28;20176;-79
2021/01/01 02:11:24;;;;;;;56.73;35.70;;;;;;;;;;4993715;28;20630;-76
2021/01/01 02:13:53;;;;;;;59.15;34.53;;;;;;;;;;4991990;28;20466;-76
2021/01/01 02:16:20;;;;;;;61.95;35.72;;;;;;;;;;4988890;28;20179;-76
2021/01/01 02:18:46;;;;;;;55.78;33.28;;;;;;;;;;4993052;28;20763;-77
2021/01/01 02:21:17;;;;;;;60.83;34.27;;;;;;;;;;4991724;28;20603;-77
2021/01/01 02:23:43;;;;;;;59.85;37.38;;;;;;;;;;4992214;28;20481;-77
2021/01/01 02:26:09;;;;;;;60.22;35.53;;;;;;;;;;4992586;28;20198;-77
2021/01/01 02:28:35;;;;;;;53.58;32.55;;;;;;;;;;4990502;28;20274;-77
2021/01/01 02:31:01;;;;;;;54.30;32.90;;;;;;;;;;4992469;28;20283;-77
2021/01/01 02:33:27;;;;;;;59.03;33.83;;;;;;;;;;4993591;28;20449;-77
2021/01/01 02:35:53;;;;;;;64.43;36.80;;;;;;;;;;4992709;28;20647;-77
2021/01/01 02:38:19;;;;;;;73.95;36.13;;;;;;;;;;4990462;28;20477;-77
2021/01/01 02:40:47;;;;;;;62.40;36.80;;;;;;;;;;4973302;28;20448;-77
2021/01/01 02:43:13;;;;;;;60.58;34.88;;;;;;;;;;4990671;28;20474;-77
2021/01/01 02:45:40;;;;;;;64.97;38.47;;;;;;;;;;4998748;28;20226;-77
2021/01/01 02:48:16;;;;;;;64.72;38.05;;;;;;;;;;5008322;28;20186;-77
2021/01/01 02:50:42;;;;;;;57.47;34.40;;;;;;;;;;4993344;28;20681;-77
2021/01/01 02:53:08;;;;;;;57.58;33.53;;;;;;;;;;4989019;28;20704;-77
2021/01/01 02:55:34;;;;;;;60.90;35.17;;;;;;;;;;4972842;28;20184;-76
2021/01/01 02:58:00;;;;;;;55.90;32.25;;;;;;;;;;4982471;28;20220;-77
2021/01/01 03:00:27;;;;;;;66.75;36.63;;;;;;;;;;4991949;28;20646;-76
2021/01/01 03:02:53;;;;;;;61.35;33.13;;;;;;;;;;4991537;28;20600;-76
2021/01/01 03:05:19;;;;;;;59.72;34.75;;;;;;;;;;4981261;28;20199;-76
2021/01/01 03:07:45;;;;;;;65.23;34.67;;;;;;;;;;4997406;28;20199;-77
2021/01/01 03:10:11;;;;;;;56.87;34.90;;;;;;;;;;4999257;28;20411;-77
2021/01/01 03:12:37;;;;;;;52.35;30.67;;;;;;;;;;4991245;28;20474;-77
2021/01/01 03:15:04;;;;;;;57.13;33.27;;;;;;;;;;4990185;28;20188;-76
2021/01/01 03:17:30;;;;;;;55.78;33.10;;;;;;;;;;4992107;28;20470;-77
2021/01/01 03:19:56;;;;;;;52.60;31.77;;;;;;;;;;4991932;28;20283;-77
2021/01/01 03:22:22;;;;;;;55.33;32.90;;;;;;;;;;4992014;28;20533;-76
2021/01/01 03:24:48;;;;;;;47.77;26.63;;;;;;;;;;4990897;23;20495;-76
2021/01/01 03:27:15;;;;;;;49.78;29.08;;;;;;;;;;4971744;28;20436;-76
2021/01/01 03:29:41;;;;;;;48.78;29.35;;;;;;;;;;4970553;28;20738;-76
2021/01/01 03:32:07;;;;;;;42.33;27.27;;;;;;;;;;4971599;28;20192;-76
2021/01/01 03:34:32;;;;;;;42.40;25.83;;;;;;;;;;4975478;28;20456;-76
2021/01/01 03:36:58;;;;;;;37.30;22.53;;;;;;;;;;4970906;28;20184;-76
2021/01/01 03:39:24;;;;;;;36.47;21.87;;;;;;;;;;4970096;28;20514;-76
2021/01/01 03:41:50;;;;;;;42.93;23.70;;;;;;;;;;4970151;28;20446;-76
2021/01/01 03:44:16;;;;;;;41.17;22.90;;;;;;;;;;4970543;28;20469;-76
2021/01/01 03:46:42;;;;;;;34.50;20.77;;;;;;;;;;4971406;28;20192;-76
2021/01/01 03:49:08;;;;;;;32.53;21.27;;;;;;;;;;4969689;28;20428;-76
2021/01/01 03:51:34;;;;;;;45.53;26.63;;;;;;;;;;4965349;28;20440;-76
2021/01/01 03:54:00;;;;;;;47.60;27.23;;;;;;;;;;4955640;28;20440;-76
2021/01/01 03:56:26;;;;;;;31.67;21.97;;;;;;;;;;4970246;28;20443;-76
2021/01/01 03:58:52;;;;;;;33.50;20.30;;;;;;;;;;4970824;28;20477;-76
2021/01/01 04:01:18;;;;;;;43.25;25.23;;;;;;;;;;4967271;28;20430;-76
2021/01/01 04:03:44;;;;;;;37.70;23.05;;;;;;;;;;4977277;28;20212;-76
2021/01/01 04:06:10;;;;;;;28.02;21.00;;;;;;;;;;4970907;28;20200;-76
2021/01/01 04:08:36;;;;;;;40.20;24.50;;;;;;;;;;4975097;28;20176;-76
2021/01/01 04:11:03;;;;;;;38.47;23.40;;;;;;;;;;4975011;28;20210;-76
2021/01/01 04:13:29;;;;;;;44.83;26.02;;;;;;;;;;4976239;28;20203;-76
2021/01/01 04:15:55;;;;;;;40.40;24.55;;;;;;;;;;4973340;28;20180;-76
2021/01/01 04:18:21;;;;;;;33.45;22.30;;;;;;;;;;4975096;28;20580;-76
2021/01/01 04:20:47;;;;;;;33.47;23.03;;;;;;;;;;4963400;28;20176;-76
2021/01/01 04:23:13;;;;;;;34.50;21.90;;;;;;;;;;4972866;28;20439;-76
2021/01/01 04:25:39;;;;;;;38.37;23.80;;;;;;;;;;4973969;28;20770;-76
2021/01/01 04:28:05;;;;;;;38.25;23.83;;;;;;;;;;4978136;28;20530;-76
2021/01/01 04:30:31;;;;;;;35.63;23.50;;;;;;;;;;4973484;28;20247;-76
2021/01/01 04:32:57;;;;;;;40.03;23.40;;;;;;;;;;4974424;28;20431;-76
2021/01/01 04:35:23;;;;;;;35.07;21.50;;;;;;;;;;4977023;28;20456;-76
2021/01/01 04:37:49;;;;;;;32.00;24.57;;;;;;;;;;4973943;28;20481;-76
2021/01/01 04:40:16;;;;;;;35.08;23.42;;;;;;;;;;4974194;28;20407;-76
2021/01/01 04:42:42;;;;;;;39.20;24.27;;;;;;;;;;4973012;28;20195;-76
2021/01/01 04:45:08;;;;;;;33.22;21.52;;;;;;;;;;4973258;28;20208;-76
2021/01/01 04:47:34;;;;;;;34.28;22.25;;;;;;;;;;4969126;28;20206;-76
2021/01/01 04:50:01;;;;;;;36.03;22.52;;;;;;;;;;4963383;28;20243;-76
2021/01/01 04:52:30;;;;;;;32.05;20.80;;;;;;;;;;4972293;28;20188;-76
2021/01/01 04:54:57;;;;;;;36.17;20.15;;;;;;;;;;4973285;28;20571;-76
2021/01/01 04:57:23;;;;;;;38.95;23.05;;;;;;;;;;4973527;28;20194;-76
2021/01/01 04:59:49;;;;;;;32.58;21.55;;;;;;;;;;4971378;28;20267;-76
2021/01/01 05:02:14;;;;;;;29.97;20.30;;;;;;;;;;4972281;28;20675;-76
2021/01/01 05:04:40;;;;;;;32.53;19.03;;;;;;;;;;4969959;28;20957;-76
2021/01/01 05:07:06;;;;;;;29.88;19.55;;;;;;;;;;4972328;28;20965;-76
2021/01/01 05:09:32;;;;;;;35.13;20.70;;;;;;;;;;4972970;28;20184;-76
2021/01/01 05:12:09;;;;;;;36.35;20.70;;;;;;;;;;4973969;28;20784;-76
2021/01/01 05:14:35;;;;;;;31.10;20.55;;;;;;;;;;4972590;28;20261;-76
2021/01/01 05:17:01;;;;;;;32.03;19.00;;;;;;;;;;4974123;28;20180;-76
2021/01/01 05:19:40;;;;;;;31.23;22.20;;;;;;;;;;4973817;28;20459;-76
2021/01/01 05:22:10;;;;;;;30.50;19.52;;;;;;;;;;4974722;28;20203;-76
2021/01/01 05:24:38;;;;;;;34.95;20.70;;;;;;;;;;4972167;28;20231;-76
2021/01/01 05:27:11;;;;;;;36.25;21.00;;;;;;;;;;4981404;28;20192;-76
2021/01/01 05:29:43;;;;;;;40.10;20.85;;;;;;;;;;4972346;28;20211;-76
2021/01/01 05:32:09;;;;;;;32.25;20.90;;;;;;;;;;4978015;28;20191;-76
2021/01/01 05:34:42;;;;;;;30.80;19.63;;;;;;;;;;4960320;28;20200;-76
2021/01/01 05:37:08;;;;;;;35.08;20.67;;;;;;;;;;4971633;28;20241;-76
2021/01/01 05:39:35;;;;;;;31.40;18.85;;;;;;;;;;4972669;28;20311;-76
2021/01/01 05:42:01;;;;;;;31.65;23.42;;;;;;;;;;4972384;28;20662;-76
2021/01/01 05:44:31;;;;;;;36.17;20.42;;;;;;;;;;4972261;28;20204;-76
2021/01/01 05:47:05;;;;;;;29.27;19.48;;;;;;;;;;4973700;28;20184;-76
2021/01/01 05:49:35;;;;;;;37.70;25.20;;;;;;;;;;4975217;28;20421;-77
2021/01/01 05:52:08;;;;;;;34.33;20.92;;;;;;;;;;4965894;28;20192;-78
2021/01/01 05:54:35;;;;;;;29.45;20.98;;;;;;;;;;4976420;28;20215;-77
2021/01/01 05:57:03;;;;;;;27.13;19.77;;;;;;;;;;4976999;28;20291;-78
2021/01/01 05:59:29;;;;;;;30.38;20.58;;;;;;;;;;4977153;28;20216;-78
2021/01/01 06:01:56;;;;;;;29.73;18.33;;;;;;;;;;4966152;28;20248;-78
2021/01/01 06:04:23;;;;;;;30.90;20.15;;;;;;;;;;4974182;28;20197;-78
2021/01/01 06:06:52;;;;;;;28.35;19.80;;;;;;;;;;4975640;28;20251;-77
2021/01/01 06:09:19;;;;;;;30.85;19.83;;;;;;;;;;4975249;28;20212;-78
2021/01/01 06:11:51;;;;;;;33.40;19.52;;;;;;;;;;4976577;28;20192;-78
2021/01/01 06:14:25;;;;;;;34.08;22.55;;;;;;;;;;4977635;28;20235;-77
2021/01/01 06:16:54;;;;;;;31.13;19.63;;;;;;;;;;4981320;28;20195;-78
2021/01/01 06:19:33;;;;;;;43.45;22.83;;;;;;;;;;5001651;28;20207;-77
2021/01/01 06:22:03;;;;;;;31.10;21.65;;;;;;;;;;4999941;28;20779;-79
2021/01/01 06:24:29;;;;;;;30.83;20.13;;;;;;;;;;4977087;28;20212;-78
2021/01/01 06:26:56;;;;;;;39.50;22.55;;;;;;;;;;4981646;28;20191;-78
2021/01/01 06:29:22;;;;;;;31.20;20.90;;;;;;;;;;4987464;28;20192;-78
2021/01/01 06:31:48;;;;;;;36.30;20.85;;;;;;;;;;4984460;28;20176;-80
2021/01/01 06:34:24;;;;;;;28.43;19.10;;;;;;;;;;4977538;28;20262;-78
2021/01/01 06:36:50;;;;;;;37.65;20.80;;;;;;;;;;4978689;28;20427;-79
2021/01/01 06:39:36;;;;;;;31.60;20.40;;;;;;;;;;4979228;28;20290;-78
2021/01/01 06:42:02;;;;;;;29.30;19.25;;;;;;;;;;4977253;28;20187;-78
2021/01/01 06:44:35;;;;;;;29.75;19.23;;;;;;;;;;4974793;28;20196;-79
2021/01/01 06:47:01;;;;;;;28.50;19.00;;;;;;;;;;4999623;28;20180;-79
2021/01/01 06:49:32;;;;;;;29.15;20.10;;;;;;;;;;4999116;28;20246;-79
2021/01/01 06:52:10;;;;;;;30.13;19.63;;;;;;;;;;4984228;28;20188;-77
2021/01/01 06:54:55;;;;;;;29.75;20.77;;;;;;;;;;4981207;28;20258;-77
2021/01/01 06:57:26;;;;;;;30.23;20.65;;;;;;;;;;4985652;28;20272;-79
2021/01/01 06:59:53;;;;;;;32.33;20.00;;;;;;;;;;4978482;28;20180;-78
2021/01/01 07:02:20;;;;;;;37.05;20.98;;;;;;;;;;4984055;28;20184;-79
2021/01/01 07:04:49;;;;;;;26.80;18.20;;;;;;;;;;4988458;28;20200;-77
2021/01/01 07:07:34;;;;;;;34.72;21.33;;;;;;;;;;4983700;28;20176;-78
2021/01/01 07:10:00;;;;;;;34.20;21.20;;;;;;;;;;4986945;28;20187;-79
2021/01/01 07:12:26;;;;;;;32.80;21.30;;;;;;;;;;4983074;28;20188;-77
2021/01/01 07:14:52;;;;;;;32.15;19.90;;;;;;;;;;4983503;28;20478;-77
2021/01/01 07:17:18;;;;;;;27.77;20.30;;;;;;;;;;4984177;28;20177;-77
2021/01/01 07:19:44;;;;;;;30.40;21.23;;;;;;;;;;4982095;28;20431;-77
2021/01/01 07:22:10;;;;;;;32.93;21.50;;;;;;;;;;4982911;28;20548;-77
2021/01/01 07:24:36;;;;;;;31.30;21.30;;;;;;;;;;4982268;28;20979;-77
2021/01/01 07:27:03;;;;;;;33.47;20.40;;;;;;;;;;4984440;28;20476;-79
2021/01/01 07:29:29;;;;;;;35.67;21.20;;;;;;;;;;4980366;28;20829;-79
2021/01/01 07:31:55;;;;;;;29.42;20.23;;;;;;;;;;4983158;28;20670;-78
2021/01/01 07:34:21;;;;;;;25.50;18.05;;;;;;;;;;4985532;28;20224;-77
2021/01/01 07:36:47;;;;;;;31.30;20.87;;;;;;;;;;4985399;28;20193;-78
2021/01/01 07:39:13;;;;;;;32.28;19.95;;;;;;;;;;4990332;28;21133;-78
2021/01/01 07:41:39;;;;;;;33.10;20.40;;;;;;;;;;4986618;28;20195;-78
2021/01/01 07:44:05;;;;;;;27.02;19.40;;;;;;;;;;4979480;28;20215;-77
2021/01/01 07:46:32;;;;;;;35.60;22.17;;;;;;;;;;4982981;28;20206;-76
2021/01/01 07:48:58;;;;;;;32.08;22.40;;;;;;;;;;4980501;28;20240;-77
2021/01/01 07:51:24;;;;;;;41.60;27.00;;;;;;;;;;4982496;28;20180;-77
2021/01/01 07:53:50;;;;;;;39.25;27.52;;;;;;;;;;4988556;28;20203;-77
2021/01/01 07:56:16;;;;;;;38.20;25.30;;;;;;;;;;4986684;28;20266;-76
2021/01/01 07:58:42;;;;;;;42.70;28.00;;;;;;;;;;4982717;28;20471;-77
2021/01/01 08:01:10;;;;;;;50.47;30.30;;;;;;;;;;4986734;28;20257;-79
2021/01/01 08:03:37;;;;;;;42.50;30.75;;;;;;;;;;4987174;28;20295;-78
2021/01/01 08:06:03;;;;;;;47.03;31.77;;;;;;;;;;4999955;28;20190;-78
2021/01/01 08:08:29;;;;;;;43.85;31.05;;;;;;;;;;4995030;28;20192;-79
2021/01/01 08:10:56;;;;;;;51.67;30.92;;;;;;;;;;4981582;28;20212;-77
2021/01/01 08:13:23;;;;;;;50.70;32.70;;;;;;;;;;4980764;28;20208;-78
2021/01/01 08:15:50;;;;;;;59.20;35.40;;;;;;;;;;4979232;28;20192;-77
2021/01/01 08:18:20;;;;;;;52.20;35.58;;;;;;;;;;4978247;28;20247;-78
2021/01/01 08:20:46;;;;;;;55.92;35.40;;;;;;;;;;4979237;28;20192;-78
2021/01/01 08:23:14;;;;;;;63.38;36.65;;;;;;;;;;4977099;28;20263;-78
2021/01/01 08:25:40;;;;;;;54.53;38.17;;;;;;;;;;4974930;28;20183;-77
2021/01/01 08:28:07;;;;;;;54.63;36.05;;;;;;;;;;4978823;28;20180;-78
2021/01/01 08:30:35;;;;;;;50.88;34.50;;;;;;;;;;4977218;28;20208;-78
2021/01/01 08:33:02;;;;;;;53.63;37.08;;;;;;;;;;4979205;28;20195;-79
2021/01/01 08:35:29;;;;;;;55.67;35.03;;;;;;;;;;4988351;28;20203;-78
2021/01/01 08:37:55;;;;;;;54.75;33.22;;;;;;;;;;4976656;28;20196;-79
2021/01/01 08:40:22;;;;;;;56.63;36.33;;;;;;;;;;4981924;28;20497;-78
2021/01/01 08:42:51;;;;;;;67.45;38.95;;;;;;;;;;4981083;28;20450;-78
2021/01/01 08:45:18;;;;;;;54.63;34.72;;;;;;;;;;4992908;28;20609;-78
2021/01/01 08:47:45;;;;;;;52.08;35.42;;;;;;;;;;5004151;28;20187;-78
2021/01/01 08:50:24;;;;;;;57.03;36.42;;;;;;;;;;4993961;28;20184;-77
2021/01/01 08:52:51;;;;;;;50.72;35.72;;;;;;;;;;4965681;28;20737;-78
2021/01/01 08:55:17;;;;;;;54.55;34.25;;;;;;;;;;4976253;28;20195;-78
2021/01/01 08:57:43;;;;;;;51.22;34.95;;;;;;;;;;4979258;28;20228;-77
2021/01/01 09:00:09;;;;;;;59.43;38.90;;;;;;;;;;4966938;28;20180;-78
2021/01/01 09:02:35;;;;;;;52.63;33.55;;;;;;;;;;4967025;28;20440;-77
2021/01/01 09:05:03;;;;;;;52.05;36.25;;;;;;;;;;4980449;28;20207;-79
2021/01/01 09:07:29;;;;;;;55.85;34.60;;;;;;;;;;4990367;28;20190;-79
2021/01/01 09:09:55;;;;;;;53.22;33.95;;;;;;;;;;4979969;28;20226;-77
2021/01/01 09:12:22;;;;;;;52.03;32.30;;;;;;;;;;4979852;28;20533;-77
2021/01/01 09:14:52;;;;;;;53.75;32.05;;;;;;;;;;4976142;28;20284;-77
2021/01/01 09:17:19;;;;;;;56.20;33.65;;;;;;;;;;4975795;28;20191;-79
2021/01/01 09:19:45;;;;;;;44.53;31.05;;;;;;;;;;4979112;28;20176;-78
2021/01/01 09:22:12;;;;;;;51.45;31.95;;;;;;;;;;4977996;28;20190;-79
2021/01/01 09:24:38;;;;;;;56.47;32.08;;;;;;;;;;4974986;28;20274;-78
2021/01/01 09:27:04;;;;;;;45.35;28.92;;;;;;;;;;4976172;28;20188;-79
2021/01/01 09:29:31;;;;;;;41.28;31.10;;;;;;;;;;4980455;28;20195;-79
2021/01/01 09:31:57;;;;;;;44.15;29.20;;;;;;;;;;4984575;28;20835;-79
2021/01/01 09:34:23;;;;;;;64.05;29.75;;;;;;;;;;4983653;28;20204;-79
2021/01/01 09:36:49;;;;;;;42.35;26.73;;;;;;;;;;4980281;28;20198;-79
2021/01/01 09:39:14;;;;;;;41.05;29.83;;;;;;;;;;4991858;28;20203;-78
2021/01/01 09:41:47;;;;;;;40.73;27.73;;;;;;;;;;4985990;28;20631;-79
2021/01/01 09:44:12;;;;;;;37.45;27.23;;;;;;;;;;4998869;28;20427;-79
2021/01/01 09:46:42;;;;;;;39.30;26.10;;;;;;;;;;4995871;28;20707;-79
2021/01/01 09:49:08;;;;;;;44.90;28.23;;;;;;;;;;4989789;28;20506;-78
2021/01/01 09:51:34;;;;;;;41.55;27.52;;;;;;;;;;4977660;28;20200;-77
2021/01/01 09:54:00;;;;;;;38.20;27.10;;;;;;;;;;4973605;28;20279;-76
2021/01/01 09:56:36;;;;;;;35.53;25.40;;;;;;;;;;4994526;28;20430;-79
2021/01/01 09:59:02;;;;;;;33.30;23.63;;;;;;;;;;5004977;28;20206;-79
2021/01/01 10:01:29;;;;;;;39.83;25.58;;;;;;;;;;4982665;28;20840;-79
2021/01/01 10:03:55;;;;;;;44.10;26.95;;;;;;;;;;4994227;28;20214;-80
2021/01/01 10:06:21;;;;;;;33.38;25.10;;;;;;;;;;4986193;28;20216;-79
2021/01/01 10:08:48;;;;;;;48.92;26.60;;;;;;;;;;4990632;28;20263;-79
2021/01/01 10:11:14;;;;;;;44.50;25.10;;;;;;;;;;4991700;28;20184;-79
2021/01/01 10:13:41;;;;;;;45.03;29.52;;;;;;;;;;4990406;28;20730;-78
2021/01/01 10:16:07;;;;;;;38.25;23.88;;;;;;;;;;4976476;28;20646;-79
2021/01/01 10:18:33;;;;;;;41.15;28.10;;;;;;;;;;5007060;28;20637;-79
2021/01/01 10:20:59;;;;;;;43.77;28.27;;;;;;;;;;4998128;28;20240;-80
2021/01/01 10:23:25;;;;;;;38.90;25.27;;;;;;;;;;4989567;28;20798;-79
2021/01/01 10:25:52;;;;;;;42.20;27.73;;;;;;;;;;4985693;28;20433;-79
2021/01/01 10:28:18;;;;;;;39.65;27.90;;;;;;;;;;4988212;28;20199;-79
2021/01/01 10:30:44;;;;;;;41.53;26.40;;;;;;;;;;5003099;28;20179;-80
2021/01/01 10:33:11;;;;;;;40.80;25.80;;;;;;;;;;5006552;28;20188;-79
2021/01/01 10:35:37;;;;;;;41.03;24.60;;;;;;;;;;5006549;28;20180;-79
2021/01/01 10:38:03;;;;;;;39.90;26.60;;;;;;;;;;4991515;28;20219;-80
2021/01/01 10:40:29;;;;;;;40.40;26.85;;;;;;;;;;4967968;29;20425;-79
2021/01/01 10:42:55;;;;;;;43.50;26.90;;;;;;;;;;4968547;29;20177;-80
2021/01/01 10:45:20;;;;;;;41.13;28.30;;;;;;;;;;4974845;28;20448;-79
2021/01/01 10:47:48;;;;;;;36.57;24.87;;;;;;;;;;4987458;28;20423;-79
2021/01/01 10:50:14;;;;;;;47.47;28.90;;;;;;;;;;4987077;28;20420;-78
2021/01/01 10:52:39;;;;;;;47.45;26.58;;;;;;;;;;4984301;28;20184;-78
2021/01/01 10:55:06;;;;;;;39.03;25.23;;;;;;;;;;4972867;28;20210;-80
2021/01/01 10:57:32;;;;;;;38.20;26.50;;;;;;;;;;4986532;28;20432;-79
2021/01/01 10:59:58;;;;;;;39.90;25.67;;;;;;;;;;4995274;28;20197;-79
2021/01/01 11:02:24;;;;;;;43.53;27.77;;;;;;;;;;5006825;28;20352;-80
2021/01/01 11:04:50;;;;;;;37.97;25.60;;;;;;;;;;5006234;28;20457;-80
2021/01/01 11:07:16;;;;;;;46.70;29.40;;;;;;;;;;5005489;28;20180;-79
2021/01/01 11:09:42;;;;;;;38.17;25.33;;;;;;;;;;4986592;28;20407;-79
2021/01/01 11:12:08;;;;;;;44.43;27.93;;;;;;;;;;4985976;28;20423;-79
2021/01/01 12:25:40;;;;;;;30.40;21.42;;;;;;;;;;4997364;28;20201;-79
2021/01/01 12:28:07;;;;;;;28.73;19.13;;;;;;;;;;4985220;28;20217;-79
2021/01/01 12:30:34;;;;;;;30.08;20.80;;;;;;;;;;4998880;28;20442;-79
2021/01/01 12:33:00;;;;;;;28.92;19.55;;;;;;;;;;4989467;28;20191;-79
2021/01/01 12:35:26;;;;;;;28.48;19.50;;;;;;;;;;5005821;28;20218;-79
2021/01/01 12:37:59;;;;;;;28.38;17.63;;;;;;;;;;4999454;28;20250;-79
2021/01/01 12:40:25;;;;;;;26.88;18.20;;;;;;;;;;5012476;28;20175;-79
2021/01/01 12:42:51;;;;;;;23.55;16.33;;;;;;;;;;4986670;28;20180;-79
2021/01/01 12:45:17;;;;;;;27.57;19.23;;;;;;;;;;4980797;28;20250;-79
2021/01/01 12:47:43;;;;;;;32.45;18.33;;;;;;;;;;4979280;28;20443;-78
2021/01/01 12:50:10;;;;;;;23.60;18.75;;;;;;;;;;4983638;28;20239;-77
2021/01/01 12:52:36;;;;;;;26.70;17.73;;;;;;;;;;4980495;28;20192;-77
2021/01/01 12:55:02;;;;;;;22.20;17.95;;;;;;;;;;4975538;28;20200;-78
2021/01/01 12:57:27;;;;;;;35.90;19.08;;;;;;;;;;4980186;28;20180;-77
2021/01/01 12:59:53;;;;;;;22.53;17.93;;;;;;;;;;4992980;28;20245;-78
2021/01/01 13:02:19;;;;;;;28.33;19.65;;;;;;;;;;4994856;28;20429;-77
2021/01/01 13:04:45;;;;;;;29.70;18.53;;;;;;;;;;4986641;28;20579;-77
2021/01/01 13:07:11;;;;;;;26.67;19.73;;;;;;;;;;4976114;28;20796;-77
2021/01/01 13:09:37;;;;;;;28.20;19.48;;;;;;;;;;4987310;28;20191;-78
2021/01/01 13:12:03;;;;;;;28.47;21.70;;;;;;;;;;4988426;28;20183;-79
2021/01/01 13:14:29;;;;;;;31.60;21.60;;;;;;;;;;5006004;28;20431;-78
2021/01/01 13:16:56;;;;;;;28.40;18.90;;;;;;;;;;4996293;28;20195;-78
2021/01/01 13:19:22;;;;;;;32.70;19.67;;;;;;;;;;4986895;28;20545;-79
2021/01/01 13:21:48;;;;;;;29.33;20.67;;;;;;;;;;4976009;28;20206;-79
2021/01/01 13:24:14;;;;;;;28.73;18.63;;;;;;;;;;4968572;28;20209;-79
2021/01/01 13:26:40;;;;;;;32.80;18.93;;;;;;;;;;4992700;28;20470;-78
2021/01/01 13:29:06;;;;;;;31.65;20.52;;;;;;;;;;4980933;28;20478;-78
2021/01/01 13:31:43;;;;;;;29.25;20.40;;;;;;;;;;4978846;28;20184;-79
2021/01/01 13:34:09;;;;;;;25.17;18.88;;;;;;;;;;4980509;28;20199;-77
2021/01/01 13:36:36;;;;;;;32.30;19.45;;;;;;;;;;4995935;28;20180;-77
2021/01/01 13:39:03;;;;;;;29.60;19.42;;;;;;;;;;4968666;28;20207;-77
2021/01/01 13:41:29;;;;;;;29.80;19.42;;;;;;;;;;4986309;28;20184;-77
2021/01/01 13:43:56;;;;;;;28.02;18.83;;;;;;;;;;4975161;28;20192;-76
2021/01/01 13:46:23;;;;;;;27.83;18.90;;;;;;;;;;4976502;28;20179;-76
2021/01/01 13:48:50;;;;;;;29.58;17.95;;;;;;;;;;4991145;28;20176;-77
2021/01/01 13:51:16;;;;;;;25.25;17.02;;;;;;;;;;4987894;28;20254;-77
2021/01/01 13:53:42;;;;;;;23.98;17.42;;;;;;;;;;4969885;28;20232;-76
2021/01/01 13:56:08;;;;;;;22.55;18.05;;;;;;;;;;4974540;28;20200;-76
2021/01/01 13:58:34;;;;;;;26.52;17.15;;;;;;;;;;4977100;28;20204;-78
2021/01/01 14:01:00;;;;;;;25.80;18.07;;;;;;;;;;4983403;28;20176;-77
2021/01/01 14:03:26;;;;;;;27.80;17.00;;;;;;;;;;4972682;28;20978;-77
2021/01/01 14:05:52;;;;;;;28.27;16.80;;;;;;;;;;4992224;28;20421;-77
2021/01/01 14:08:19;;;;;;;22.15;16.08;;;;;;;;;;4960785;28;20519;-77
2021/01/01 14:10:45;;;;;;;21.75;16.70;;;;;;;;;;4985891;28;20234;-78
2021/01/01 14:13:11;;;;;;;20.80;15.45;;;;;;;;;;4981023;28;20196;-78
2021/01/01 14:15:37;;;;;;;22.27;16.58;;;;;;;;;;4987752;28;20191;-77
2021/01/01 14:18:04;;;;;;;19.98;15.15;;;;;;;;;;4978726;28;20239;-78
2021/01/01 14:20:30;;;;;;;20.77;15.80;;;;;;;;;;4989354;28;20184;-78
2021/01/01 14:22:56;;;;;;;19.48;14.90;;;;;;;;;;4988791;28;20248;-79
2021/01/01 14:25:22;;;;;;;19.67;14.68;;;;;;;;;;5000159;28;20211;-78
2021/01/01 14:27:48;;;;;;;20.88;15.63;;;;;;;;;;4991063;28;20288;-78
2021/01/01 14:30:14;;;;;;;17.50;14.32;;;;;;;;;;4987678;28;20180;-78
2021/01/01 14:32:40;;;;;;;20.80;15.98;;;;;;;;;;4981841;28;20538;-79
2021/01/01 14:35:09;;;;;;;26.87;15.47;;;;;;;;;;4980273;28;20232;-79
2021/01/01 14:37:41;;;;;;;19.23;15.38;;;;;;;;;;4984305;28;20436;-79
2021/01/01 14:40:08;;;;;;;19.88;15.18;;;;;;;;;;4983700;28;20180;-79
2021/01/01 14:42:34;;;;;;;21.25;15.10;;;;;;;;;;4986263;28;20268;-78
2021/01/01 14:45:00;;;;;;;22.73;15.82;;;;;;;;;;4980836;28;20197;-77
2021/01/01 14:47:27;;;;;;;21.15;15.52;;;;;;;;;;4965593;29;20657;-78
2021/01/01 14:49:53;;;;;;;22.15;14.30;;;;;;;;;;4986057;28;20183;-78
2021/01/01 14:52:19;;;;;;;17.38;13.45;;;;;;;;;;4984611;28;20697;-76
2021/01/01 14:54:45;;;;;;;17.47;14.23;;;;;;;;;;4969123;28;20200;-77
2021/01/01 14:57:11;;;;;;;20.30;15.18;;;;;;;;;;4972432;28;20448;-76
2021/01/01 14:59:39;;;;;;;25.47;16.50;;;;;;;;;;4975360;28;20243;-77
2021/01/01 15:02:05;;;;;;;21.67;14.20;;;;;;;;;;4979576;28;20441;-76
2021/01/01 15:04:30;;;;;;;21.10;14.70;;;;;;;;;;4990818;28;20188;-77
2021/01/01 15:06:57;;;;;;;21.10;14.20;;;;;;;;;;4976764;28;20946;-75
2021/01/01 15:09:23;;;;;;;22.02;14.40;;;;;;;;;;4956272;28;21114;-75
2021/01/01 15:11:50;;;;;;;19.77;14.32;;;;;;;;;;4981066;28;20191;-76
2021/01/01 15:14:16;;;;;;;17.70;13.75;;;;;;;;;;4991141;28;20194;-76
2021/01/01 15:16:42;;;;;;;18.27;13.97;;;;;;;;;;4989595;28;20234;-76
2021/01/01 15:19:09;;;;;;;21.98;15.13;;;;;;;;;;4991024;28;20524;-76
2021/01/01 15:21:35;;;;;;;20.42;14.10;;;;;;;;;;4975531;28;20587;-76
2021/01/01 15:24:03;;;;;;;20.02;15.05;;;;;;;;;;4967644;28;20403;-77
2021/01/01 15:26:31;;;;;;;23.15;15.00;;;;;;;;;;4968216;28;20693;-76